»·PEaware :: AAL491 KDEN-KPHX

AAL491 :: KDEN-KPHX

FLIGHT INFORMATION

Flight Status: Arrived
Operator:
American Airlines
More flights by this operator :: More flights under this callsign
Pilot: Jim M. (18055)
Aircraft: BOEING 777-200
(B772)
More flights by this aircraft type
Origin: KDEN Denver Intl
United States
Destination: KPHX Phoenix Sky Harbor Intl
United States
More flights between these airports :: More routes between these airports
Route: SMMUR1 DAAYE GUP EAGUL6
File this flight plan on PilotEdge
Remarks:
Altitude:
(Current/Filed)
36,000ft
Speed:
(Current/Filed)
450kts
Departed: 13-Apr-20 12:21 PM
Arrived: 13-Apr-20 02:03 PM
Distance/Time
Traveled:
522nm/1:41
Distance/Time
To Go:
Arrived

Flight Plot

Page will automatically refresh every two minutes.


Map Options




Map Legend


Flown Route
Filed Route
Departure Airport
Arrival Airport
Navaid (VOR, NDB)
Fix

Horizontal Profiles

Position Reports

Time Latitude Longitude Heading Altitude Ground
Speed
13-Apr-20 12:11 39.855959 -104.678211 271 5444ft 0kts
13-Apr-20 12:12 39.855964 -104.679096 269 5444ft 18kts
13-Apr-20 12:13 39.855984 -104.683240 263 5444ft 6kts
13-Apr-20 12:14 39.852921 -104.684012 177 5444ft 15kts
13-Apr-20 12:15 39.849064 -104.684070 178 5444ft 9kts
13-Apr-20 12:16 39.845204 -104.684110 181 5444ft 14kts
13-Apr-20 12:17 39.842212 -104.684118 180 5444ft 0kts
13-Apr-20 12:18 39.841899 -104.684122 180 5444ft 9kts
13-Apr-20 12:19 39.840622 -104.687079 270 5444ft 38kts
13-Apr-20 12:20 39.837890 -104.744658 253 7139ft 211kts
13-Apr-20 12:21 39.806817 -104.825392 241 9619ft 285kts
13-Apr-20 12:22 39.753549 -104.911567 204 10802ft 351kts
13-Apr-20 12:23 39.656168 -104.915058 167 15714ft 371kts
13-Apr-20 12:24 39.557421 -104.859174 154 19834ft 405kts
13-Apr-20 12:25 39.449833 -104.818036 179 23046ft 409kts
13-Apr-20 12:26 39.347023 -104.861711 216 23245ft 393kts
13-Apr-20 12:27 39.259022 -104.948635 219 26964ft 404kts
13-Apr-20 12:28 39.167963 -105.038120 219 30286ft 417kts
13-Apr-20 12:29 39.068301 -105.111491 210 34104ft 401kts
13-Apr-20 12:30 38.968296 -105.174603 211 36209ft 404kts
13-Apr-20 12:31 38.868502 -105.238685 211 36246ft 399kts
13-Apr-20 12:32 38.769628 -105.302560 211 36258ft 398kts
13-Apr-20 12:33 38.670801 -105.366261 211 36258ft 398kts
13-Apr-20 12:34 38.571675 -105.429548 211 36263ft 398kts
13-Apr-20 12:35 38.472397 -105.492707 211 36253ft 397kts
13-Apr-20 12:36 38.372840 -105.555122 210 36240ft 398kts
13-Apr-20 12:37 38.276246 -105.615215 211 36234ft 397kts
13-Apr-20 12:38 38.176852 -105.676902 210 36229ft 397kts
13-Apr-20 12:39 38.077437 -105.738181 210 36219ft 397kts
13-Apr-20 12:40 37.984882 -105.811258 225 36212ft 390kts
13-Apr-20 12:41 37.908454 -105.908996 227 36215ft 389kts
13-Apr-20 12:42 37.832345 -106.006374 226 36217ft 389kts
13-Apr-20 12:43 37.755931 -106.103443 227 36221ft 389kts
13-Apr-20 12:44 37.679777 -106.200687 226 36245ft 389kts
13-Apr-20 12:45 37.603147 -106.297646 226 36262ft 389kts
13-Apr-20 12:46 37.526717 -106.393919 226 36273ft 389kts
13-Apr-20 12:47 37.449945 -106.490293 226 36306ft 388kts
13-Apr-20 12:48 37.373299 -106.586215 226 36322ft 388kts
13-Apr-20 12:49 37.296613 -106.681893 225 36321ft 388kts
13-Apr-20 12:50 37.220021 -106.777171 225 36334ft 388kts
13-Apr-20 12:51 37.143322 -106.872289 225 36274ft 388kts
13-Apr-20 12:52 37.066400 -106.967392 225 36264ft 387kts
13-Apr-20 12:53 36.989668 -107.061970 225 36259ft 387kts
13-Apr-20 12:54 36.912836 -107.156398 225 36220ft 387kts
13-Apr-20 12:55 36.836090 -107.250440 225 36212ft 387kts
13-Apr-20 12:56 36.759193 -107.344386 224 36204ft 387kts
13-Apr-20 12:57 36.682115 -107.438274 224 36217ft 387kts
13-Apr-20 12:58 36.604975 -107.531957 224 36216ft 387kts
13-Apr-20 12:59 36.527884 -107.625307 224 36215ft 387kts
13-Apr-20 13:00 36.450535 -107.718691 224 36173ft 387kts
13-Apr-20 13:01 36.373271 -107.811706 224 36163ft 386kts
13-Apr-20 13:02 36.295970 -107.904495 224 36162ft 386kts
13-Apr-20 13:03 36.218680 -107.996997 223 36167ft 386kts
13-Apr-20 13:04 36.141442 -108.089159 223 36171ft 387kts
13-Apr-20 13:05 36.063887 -108.181457 223 36175ft 386kts
13-Apr-20 13:06 35.986387 -108.273417 223 36177ft 386kts
13-Apr-20 13:08 35.908797 -108.365219 223 36182ft 386kts
13-Apr-20 13:09 35.830954 -108.457058 223 36188ft 387kts
13-Apr-20 13:10 35.752976 -108.548799 223 36192ft 387kts
13-Apr-20 13:11 35.675241 -108.640357 223 36196ft 387kts
13-Apr-20 13:12 35.596819 -108.732017 223 36200ft 388kts
13-Apr-20 13:13 35.518399 -108.823289 223 36200ft 388kts
13-Apr-20 13:14 35.441214 -108.916093 226 36201ft 389kts
13-Apr-20 13:15 35.367427 -109.012699 225 36201ft 389kts
13-Apr-20 13:16 35.292896 -109.108927 225 36199ft 389kts
13-Apr-20 13:17 35.218128 -109.205383 225 36192ft 390kts
13-Apr-20 13:18 35.143429 -109.301771 225 36183ft 390kts
13-Apr-20 13:19 35.068595 -109.397677 225 36175ft 390kts
13-Apr-20 13:20 34.994231 -109.493103 225 36166ft 391kts
13-Apr-20 13:21 34.920537 -109.586752 225 36163ft 391kts
13-Apr-20 13:22 34.844940 -109.682608 225 36163ft 391kts
13-Apr-20 13:23 34.769892 -109.778256 225 36166ft 391kts
13-Apr-20 13:24 34.699553 -109.879191 238 36176ft 395kts
13-Apr-20 13:25 34.653623 -110.000880 242 36184ft 397kts
13-Apr-20 13:26 34.608432 -110.123864 241 36200ft 399kts
13-Apr-20 13:26 34.570631 -110.224898 241 35378ft 386kts
13-Apr-20 13:28 34.519136 -110.361284 241 33644ft 365kts
13-Apr-20 13:29 34.476994 -110.473303 241 32302ft 372kts
13-Apr-20 13:29 34.441128 -110.568099 241 31126ft 371kts
13-Apr-20 13:30 34.398320 -110.680262 241 29510ft 361kts
13-Apr-20 13:32 34.345436 -110.804827 230 27659ft 351kts
13-Apr-20 13:33 34.280708 -110.891286 225 26098ft 344kts
13-Apr-20 13:33 34.226498 -110.960776 225 24823ft 339kts
13-Apr-20 13:34 34.162381 -111.043266 225 23324ft 333kts
13-Apr-20 13:36 34.090453 -111.135843 226 21645ft 316kts
13-Apr-20 13:36 34.040954 -111.199625 225 20480ft 311kts
13-Apr-20 13:37 33.981710 -111.275325 225 19092ft 309kts
13-Apr-20 13:38 33.923321 -111.349824 225 17702ft 302kts
13-Apr-20 13:39 33.869309 -111.425349 234 16349ft 293kts
13-Apr-20 13:40 33.826559 -111.507271 236 15040ft 287kts
13-Apr-20 13:41 33.784149 -111.587857 235 13816ft 283kts
13-Apr-20 13:42 33.742037 -111.666796 235 12824ft 272kts
13-Apr-20 13:43 33.702471 -111.740920 236 11956ft 254kts
13-Apr-20 13:44 33.664202 -111.813106 235 11083ft 256kts
13-Apr-20 13:45 33.626924 -111.883175 235 10178ft 241kts
13-Apr-20 13:46 33.591553 -111.949833 235 9127ft 235kts
13-Apr-20 13:47 33.556106 -112.016202 235 8033ft 234kts
13-Apr-20 13:48 33.525849 -112.083975 256 7088ft 232kts
13-Apr-20 13:49 33.522395 -112.161946 266 6705ft 230kts
13-Apr-20 13:50 33.520640 -112.238274 266 4918ft 231kts
13-Apr-20 13:51 33.519191 -112.308625 266 4456ft 188kts
13-Apr-20 13:52 33.517963 -112.370918 266 4032ft 187kts
13-Apr-20 13:53 33.516506 -112.433237 260 4040ft 185kts
13-Apr-20 13:54 33.480622 -112.436911 119 4072ft 188kts
13-Apr-20 13:55 33.464390 -112.377460 110 4053ft 185kts
13-Apr-20 13:56 33.441255 -112.322353 111 4055ft 186kts
13-Apr-20 13:57 33.440582 -112.260023 91 4054ft 188kts
13-Apr-20 13:58 33.440818 -112.197721 92 3967ft 185kts
13-Apr-20 13:59 33.440826 -112.137409 92 2918ft 171kts
13-Apr-20 14:00 33.440825 -112.086095 91 2106ft 144kts
13-Apr-20 14:01 33.440891 -112.038855 91 1350ft 141kts
13-Apr-20 14:02 33.440837 -112.010071 89 1148ft 26kts
13-Apr-20 14:03 33.439485 -112.007249 171 1148ft 7kts
13-Apr-20 14:04 33.439143 -112.003345 91 1148ft 15kts
13-Apr-20 14:05 33.439009 -111.999211 90 1148ft 7kts
13-Apr-20 14:06 33.438979 -111.994393 81 1148ft 6kts
13-Apr-20 14:07 33.438962 -111.993494 133 1148ft 3kts
13-Apr-20 14:08 33.438307 -111.993597 216 1148ft 2kts
13-Apr-20 14:09 33.438254 -111.993647 218 1148ft 0kts

Navigation Log

Ident Type
Flight plan parsing failed, navigation log unavailable